createdAt,value
2018-03-15T00:01:25.356Z,85.90
2018-03-15T00:03:53.295Z,86.10
2018-03-15T00:06:22.963Z,86.10
2018-03-15T00:08:50.812Z,86.30
2018-03-15T00:11:18.972Z,86.20
2018-03-15T00:13:46.978Z,86.10
2018-03-15T00:16:14.874Z,86.00
2018-03-15T00:18:43.626Z,86.20
2018-03-15T00:21:11.624Z,86.30
2018-03-15T00:23:40.030Z,86.30
2018-03-15T00:26:07.993Z,86.20
2018-03-15T00:28:36.734Z,86.10
2018-03-15T00:31:05.477Z,86.50
2018-03-15T00:33:33.310Z,86.50
2018-03-15T00:36:01.694Z,86.70
2018-03-15T00:38:30.332Z,86.70
2018-03-15T00:40:58.182Z,86.70
2018-03-15T00:43:29.663Z,87.00
2018-03-15T00:45:57.671Z,87.00
2018-03-15T00:48:25.652Z,87.10
2018-03-15T00:50:54.360Z,87.10
2018-03-15T00:53:23.022Z,87.10
2018-03-15T00:55:50.970Z,87.00
2018-03-15T00:58:18.947Z,86.80
2018-03-15T01:00:46.948Z,86.70
2018-03-15T01:03:17.794Z,86.60
2018-03-15T01:05:45.752Z,86.50
2018-03-15T01:08:13.815Z,86.00
2018-03-15T01:10:42.388Z,85.70
2018-03-15T01:13:10.986Z,85.80
2018-03-15T01:15:38.810Z,85.60
2018-03-15T01:18:07.374Z,85.60
2018-03-15T01:20:37.810Z,85.60
2018-03-15T01:23:06.620Z,85.30
2018-03-15T01:25:34.618Z,85.00
2018-03-15T01:28:02.364Z,84.80
2018-03-15T01:30:30.177Z,84.40
2018-03-15T01:32:57.987Z,84.50
2018-03-15T01:35:26.468Z,84.40
2018-03-15T01:37:54.298Z,84.20
2018-03-15T01:40:22.102Z,85.10
2018-03-15T01:42:49.798Z,84.40
2018-03-15T01:45:18.488Z,84.00
2018-03-15T01:47:46.314Z,83.70
2018-03-15T01:50:14.188Z,83.00
2018-03-15T01:52:42.076Z,82.80
2018-03-15T01:55:09.994Z,82.30
2018-03-15T01:57:37.935Z,82.00
2018-03-15T02:00:06.034Z,81.90
2018-03-15T02:02:34.088Z,82.10
2018-03-15T02:05:01.981Z,81.90
2018-03-15T02:07:29.902Z,81.90
2018-03-15T02:09:58.918Z,82.00
2018-03-15T02:12:27.196Z,82.00
2018-03-15T02:14:55.108Z,82.00
2018-03-15T02:17:23.075Z,81.60
2018-03-15T02:19:50.887Z,81.60
2018-03-15T02:22:18.556Z,81.30
2018-03-15T02:24:47.028Z,81.30
2018-03-15T02:27:15.110Z,81.30
2018-03-15T02:29:43.080Z,81.40
2018-03-15T02:32:11.181Z,81.30
2018-03-15T02:34:39.138Z,81.10
2018-03-15T02:37:07.128Z,81.00
2018-03-15T02:39:35.197Z,80.90
2018-03-15T02:42:03.151Z,81.50
2018-03-15T02:44:31.061Z,81.60
2018-03-15T02:46:59.627Z,81.40
2018-03-15T02:49:27.482Z,81.70
2018-03-15T02:51:55.358Z,81.70
2018-03-15T02:54:23.138Z,81.80
2018-03-15T02:56:50.903Z,81.50
2018-03-15T02:59:20.890Z,81.50
2018-03-15T03:01:49.634Z,81.60
2018-03-15T03:04:17.716Z,81.60
2018-03-15T03:06:46.596Z,81.50
2018-03-15T03:09:15.513Z,81.30
2018-03-15T03:11:43.825Z,81.50
2018-03-15T03:14:11.767Z,81.50
2018-03-15T03:16:39.768Z,81.40
2018-03-15T03:19:08.152Z,81.10
2018-03-15T03:21:38.038Z,81.00
2018-03-15T03:24:06.070Z,81.00
2018-03-15T03:26:34.994Z,81.00
2018-03-15T03:29:02.887Z,80.70
2018-03-15T03:31:30.866Z,80.50
2018-03-15T03:33:58.814Z,80.30
2018-03-15T03:36:26.674Z,80.50
2018-03-15T03:38:56.419Z,80.60
2018-03-15T03:41:24.184Z,80.50
2018-03-15T03:43:52.050Z,80.60
2018-03-15T03:46:19.878Z,80.90
2018-03-15T03:48:48.826Z,80.50
2018-03-15T03:51:16.512Z,80.20
2018-03-15T03:53:44.320Z,80.10
2018-03-15T03:56:12.156Z,80.10
2018-03-15T03:58:40.832Z,80.00
2018-03-15T04:01:09.491Z,79.90
2018-03-15T04:03:37.324Z,80.00
2018-03-15T04:06:05.999Z,79.80
2018-03-15T04:08:34.619Z,79.70
2018-03-15T04:11:02.486Z,79.60
2018-03-15T04:13:32.604Z,80.00
2018-03-15T04:16:00.630Z,80.00
2018-03-15T04:18:30.396Z,80.20
2018-03-15T04:21:01.272Z,80.40
2018-03-15T04:23:29.014Z,80.40
2018-03-15T04:25:56.922Z,80.30
2018-03-15T04:28:26.269Z,80.30
2018-03-15T04:30:54.910Z,81.20
2018-03-15T04:33:27.474Z,80.70
2018-03-15T04:35:55.402Z,81.40
2018-03-15T04:38:25.568Z,80.90
2018-03-15T04:40:54.077Z,80.80
2018-03-15T04:43:24.400Z,81.10
2018-03-15T04:45:52.480Z,81.10
2018-03-15T04:48:23.281Z,81.10
2018-03-15T04:50:52.104Z,81.20
2018-03-15T04:53:20.125Z,81.40
2018-03-15T04:55:48.141Z,81.60
2018-03-15T04:58:16.774Z,81.80
2018-03-15T05:00:46.149Z,82.00
2018-03-15T05:03:16.588Z,82.00
2018-03-15T05:05:45.532Z,82.10
2018-03-15T05:08:15.160Z,82.60
2018-03-15T05:10:45.254Z,82.50
2018-03-15T05:13:14.063Z,82.70
2018-03-15T05:15:43.654Z,82.40
2018-03-15T05:18:12.548Z,82.20
2018-03-15T05:20:42.272Z,82.10
2018-03-15T05:23:11.158Z,82.30
2018-03-15T05:25:39.088Z,82.30
2018-03-15T05:28:15.700Z,81.60
2018-03-15T05:30:45.354Z,82.10
2018-03-15T05:33:15.282Z,81.30
2018-03-15T05:35:43.168Z,81.50
2018-03-15T05:38:16.585Z,81.40
2018-03-15T05:40:44.374Z,81.40
2018-03-15T05:43:12.446Z,81.90
2018-03-15T05:45:40.552Z,81.10
2018-03-15T05:48:08.652Z,81.20
2018-03-15T05:50:36.612Z,81.20
2018-03-15T05:53:06.149Z,81.30
2018-03-15T05:55:34.172Z,81.20
2018-03-15T05:58:02.287Z,81.60
2018-03-15T06:00:30.258Z,81.50
2018-03-15T06:03:06.534Z,81.70
2018-03-15T06:05:34.404Z,81.70
2018-03-15T06:08:02.316Z,81.70
2018-03-15T06:10:30.325Z,81.80
2018-03-15T06:12:58.186Z,81.90
2018-03-15T06:15:26.158Z,81.90
2018-03-15T06:17:54.716Z,82.00
2018-03-15T06:20:22.737Z,82.00
2018-03-15T06:22:51.481Z,82.10
2018-03-15T06:25:19.417Z,82.10
2018-03-15T06:27:47.376Z,82.00
2018-03-15T06:30:15.272Z,81.90
2018-03-15T06:35:17.598Z,82.40
2018-03-15T06:37:45.503Z,82.10
2018-03-15T06:40:15.236Z,82.40
2018-03-15T06:42:43.272Z,82.20
2018-03-15T06:45:11.191Z,82.20
2018-03-15T06:47:43.324Z,82.40
2018-03-15T06:50:11.121Z,82.30
2018-03-15T06:52:39.157Z,82.20
2018-03-15T06:55:07.539Z,82.50
2018-03-15T06:57:35.725Z,82.60
2018-03-15T07:00:04.813Z,82.50
2018-03-15T07:02:32.757Z,82.40
2018-03-15T07:05:00.799Z,82.20
2018-03-15T07:07:29.177Z,81.70
2018-03-15T07:09:57.954Z,81.90
2018-03-15T07:12:25.877Z,81.80
2018-03-15T07:14:53.920Z,81.70
2018-03-15T07:17:21.851Z,81.60
2018-03-15T07:19:50.049Z,81.30
2018-03-15T07:22:17.911Z,80.20
2018-03-15T07:24:45.866Z,79.80
2018-03-15T07:27:13.741Z,78.80
2018-03-15T07:29:41.659Z,78.80
2018-03-15T07:32:09.716Z,79.50
2018-03-15T07:34:37.595Z,78.50
2018-03-15T07:37:05.295Z,78.90
2018-03-15T07:39:33.917Z,78.60
2018-03-15T07:42:01.898Z,77.60
2018-03-15T07:44:30.321Z,78.20
2018-03-15T07:46:58.338Z,78.30
2018-03-15T07:49:27.178Z,75.70
2018-03-15T07:51:55.163Z,75.70
2018-03-15T07:54:23.186Z,75.20
2018-03-15T07:56:51.034Z,74.60
2018-03-15T07:59:20.006Z,74.20
2018-03-15T08:01:48.058Z,74.20
2018-03-15T08:04:16.116Z,73.90
2018-03-15T08:06:44.040Z,73.80
2018-03-15T08:09:11.938Z,73.10
2018-03-15T08:11:39.841Z,72.30
2018-03-15T08:14:07.934Z,72.30
2018-03-15T08:16:36.624Z,72.50
2018-03-15T08:19:05.400Z,71.10
2018-03-15T08:21:33.270Z,71.10
2018-03-15T08:24:01.360Z,71.10
2018-03-15T08:26:29.058Z,69.90
2018-03-15T08:28:56.899Z,70.60
2018-03-15T08:31:24.824Z,70.90
2018-03-15T08:33:52.738Z,71.50
2018-03-15T08:36:20.757Z,70.80
2018-03-15T08:38:48.850Z,70.60
2018-03-15T08:41:16.742Z,69.60
2018-03-15T08:43:44.787Z,70.00
2018-03-15T08:46:12.708Z,69.80
2018-03-15T08:48:40.579Z,70.60
2018-03-15T08:51:08.610Z,71.40
2018-03-15T08:53:37.336Z,70.60
2018-03-15T08:56:05.215Z,70.30
2018-03-15T08:58:33.143Z,70.40
2018-03-15T09:01:00.983Z,70.80
2018-03-15T09:03:28.875Z,71.20
2018-03-15T09:05:57.247Z,71.90
2018-03-15T09:08:25.352Z,71.30
2018-03-15T09:10:53.361Z,71.40
2018-03-15T09:13:21.454Z,71.80
2018-03-15T09:15:50.224Z,71.90
2018-03-15T09:18:18.562Z,72.00
2018-03-15T09:20:47.231Z,72.10
2018-03-15T09:23:16.412Z,72.00
2018-03-15T09:25:44.353Z,72.20
2018-03-15T09:28:12.378Z,71.70
2018-03-15T09:30:40.451Z,71.90
2018-03-15T09:33:08.504Z,71.70
2018-03-15T09:35:36.556Z,72.10
2018-03-15T09:38:04.522Z,71.80
2018-03-15T09:40:33.342Z,72.00
2018-03-15T09:43:02.188Z,71.70
2018-03-15T09:45:30.252Z,71.50
2018-03-15T09:47:59.055Z,70.30
2018-03-15T09:50:26.984Z,70.20
2018-03-15T09:52:55.714Z,70.50
2018-03-15T09:55:24.514Z,70.10
2018-03-15T09:57:52.774Z,70.10
2018-03-15T10:00:20.634Z,69.40
2018-03-15T10:02:48.905Z,69.40
2018-03-15T10:05:16.847Z,68.80
2018-03-15T10:07:44.790Z,68.70
2018-03-15T10:10:13.074Z,69.70
2018-03-15T10:12:41.032Z,69.50
2018-03-15T10:15:09.032Z,69.80
2018-03-15T10:17:37.415Z,68.50
2018-03-15T10:20:05.350Z,68.70
2018-03-15T10:22:33.538Z,68.40
2018-03-15T10:25:01.568Z,68.50
2018-03-15T10:27:30.403Z,68.70
2018-03-15T10:29:58.563Z,67.30
2018-03-15T10:32:26.262Z,66.70
2018-03-15T10:35:00.463Z,67.20
2018-03-15T10:37:28.500Z,67.10
2018-03-15T10:39:56.346Z,66.60
2018-03-15T10:42:24.226Z,67.00
2018-03-15T10:44:52.081Z,66.80
2018-03-15T10:47:19.948Z,66.00
2018-03-15T10:49:47.960Z,66.00
2018-03-15T10:52:15.812Z,66.30
2018-03-15T10:54:43.603Z,66.60
2018-03-15T10:57:12.421Z,66.80
2018-03-15T10:59:41.143Z,67.40
2018-03-15T11:02:09.223Z,67.20
2018-03-15T11:07:40.492Z,67.60
2018-03-15T11:10:09.902Z,67.00
2018-03-15T11:12:37.923Z,67.70
2018-03-15T11:15:05.947Z,67.90
2018-03-15T11:17:34.501Z,67.70
2018-03-15T11:20:02.712Z,67.60
2018-03-15T11:22:30.784Z,68.00
2018-03-15T11:24:58.764Z,68.10
2018-03-15T11:27:26.758Z,68.30
2018-03-15T11:29:54.686Z,68.00
2018-03-15T11:32:22.677Z,67.90
2018-03-15T11:34:50.791Z,67.70
2018-03-15T11:37:18.901Z,67.20
2018-03-15T11:39:48.240Z,67.80
2018-03-15T11:42:16.315Z,67.60
2018-03-15T11:44:44.191Z,66.50
2018-03-15T11:47:12.031Z,67.50
2018-03-15T11:49:40.012Z,67.70
2018-03-15T11:52:08.985Z,67.10
2018-03-15T11:54:37.710Z,67.70
2018-03-15T11:57:05.623Z,67.70
2018-03-15T11:59:34.287Z,67.90
2018-03-15T12:02:02.289Z,67.80
2018-03-15T12:04:31.159Z,68.00
2018-03-15T12:06:59.028Z,68.00
2018-03-15T12:09:26.834Z,67.70
2018-03-15T12:11:55.546Z,68.40
2018-03-15T12:14:24.505Z,68.40
2018-03-15T12:16:52.583Z,69.00
2018-03-15T12:19:20.544Z,69.30
2018-03-15T12:21:48.679Z,69.40
2018-03-15T12:24:16.730Z,69.40
2018-03-15T12:26:44.959Z,69.80
2018-03-15T12:29:12.975Z,69.40
2018-03-15T12:31:41.650Z,70.00
2018-03-15T12:34:09.799Z,69.90
2018-03-15T12:36:37.921Z,69.60
2018-03-15T12:39:05.719Z,69.60
2018-03-15T12:41:33.491Z,69.80
2018-03-15T12:44:01.492Z,70.30
2018-03-15T12:46:29.420Z,70.50
2018-03-15T12:48:57.364Z,69.90
2018-03-15T12:51:25.327Z,70.60
2018-03-15T12:53:53.062Z,70.80
2018-03-15T12:56:20.977Z,71.10
2018-03-15T12:58:48.997Z,72.30
2018-03-15T13:01:17.034Z,71.80
2018-03-15T13:03:44.925Z,71.60
2018-03-15T13:06:13.061Z,72.40
2018-03-15T13:08:40.914Z,72.70
2018-03-15T13:11:08.862Z,72.50
2018-03-15T13:13:36.809Z,72.50
2018-03-15T13:16:04.820Z,71.80
2018-03-15T13:18:32.891Z,72.20
2018-03-15T13:21:00.786Z,72.40
2018-03-15T13:23:28.687Z,72.10
2018-03-15T13:25:56.498Z,72.30
2018-03-15T13:28:24.527Z,72.90
2018-03-15T13:30:52.530Z,73.00
2018-03-15T13:33:20.558Z,72.60
2018-03-15T13:35:49.273Z,73.10
2018-03-15T13:38:17.282Z,72.90
2018-03-15T13:40:45.082Z,73.40
2018-03-15T13:43:12.962Z,73.20
2018-03-15T13:45:40.953Z,72.70
2018-03-15T13:48:08.909Z,72.70
2018-03-15T13:50:36.775Z,72.20
2018-03-15T13:53:04.775Z,72.20
2018-03-15T13:55:32.731Z,72.20
2018-03-15T13:58:00.707Z,72.20
2018-03-15T14:00:31.779Z,72.00
2018-03-15T14:02:59.652Z,72.10
2018-03-15T14:05:28.003Z,71.60
2018-03-15T14:07:56.086Z,72.10
2018-03-15T14:10:24.049Z,71.20
2018-03-15T14:12:51.973Z,71.10
2018-03-15T14:15:20.626Z,71.10
2018-03-15T14:17:48.475Z,71.10
2018-03-15T14:20:16.394Z,71.10
2018-03-15T14:22:44.443Z,70.60
2018-03-15T14:25:13.741Z,70.80
2018-03-15T14:27:41.827Z,71.40
2018-03-15T14:30:10.669Z,71.60
2018-03-15T14:32:39.556Z,71.00
2018-03-15T14:35:07.510Z,70.80
2018-03-15T14:37:36.319Z,70.00
2018-03-15T14:40:04.531Z,69.90
2018-03-15T14:42:35.002Z,70.40
2018-03-15T14:45:03.665Z,70.00
2018-03-15T14:47:32.501Z,70.00
2018-03-15T14:50:00.396Z,69.90
2018-03-15T14:52:28.391Z,69.80
2018-03-15T14:54:56.532Z,69.70
2018-03-15T14:57:24.443Z,70.70
2018-03-15T14:59:53.034Z,70.80
2018-03-15T15:02:20.996Z,70.50
2018-03-15T15:04:49.700Z,71.10
2018-03-15T15:07:18.368Z,71.40
2018-03-15T15:09:46.134Z,71.30
2018-03-15T15:12:14.121Z,71.50
2018-03-15T15:14:42.087Z,71.90
2018-03-15T15:17:10.828Z,72.70
2018-03-15T15:19:39.587Z,72.70
2018-03-15T15:22:07.549Z,72.60
2018-03-15T15:24:35.415Z,72.80
2018-03-15T15:27:03.553Z,73.30
2018-03-15T15:29:31.477Z,73.60
2018-03-15T15:31:59.907Z,73.60
2018-03-15T15:34:27.884Z,73.80
2018-03-15T15:36:55.858Z,74.40
2018-03-15T15:39:23.772Z,74.70
2018-03-15T15:41:51.697Z,74.60
2018-03-15T15:44:19.393Z,74.80
2018-03-15T15:46:47.415Z,74.80
2018-03-15T15:49:15.267Z,75.10
2018-03-15T15:51:43.181Z,75.50
2018-03-15T15:54:11.163Z,76.20
2018-03-15T15:56:39.066Z,76.40
2018-03-15T15:59:07.079Z,76.80
2018-03-15T16:01:37.023Z,76.90
2018-03-15T16:04:04.899Z,76.90
2018-03-15T16:06:32.646Z,77.10
2018-03-15T16:09:00.404Z,77.70
2018-03-15T16:11:28.535Z,77.80
2018-03-15T16:13:56.237Z,77.90
2018-03-15T16:16:24.288Z,78.20
2018-03-15T16:18:52.218Z,78.50
2018-03-15T16:21:20.295Z,78.60
2018-03-15T16:23:48.190Z,78.90
2018-03-15T16:26:16.856Z,79.10
2018-03-15T16:28:45.921Z,79.40
2018-03-15T16:31:13.868Z,79.40
2018-03-15T16:33:42.597Z,79.80
2018-03-15T16:36:10.547Z,79.80
2018-03-15T16:38:38.389Z,79.70
2018-03-15T16:41:06.323Z,79.30
2018-03-15T16:43:35.458Z,79.90
2018-03-15T16:46:03.691Z,79.70
2018-03-15T16:48:31.691Z,81.00
2018-03-15T16:51:00.531Z,80.20
2018-03-15T16:53:28.673Z,80.20
2018-03-15T16:55:56.667Z,80.90
2018-03-15T16:58:24.668Z,81.20
2018-03-15T17:00:52.631Z,81.40
2018-03-15T17:03:20.602Z,81.40
2018-03-15T17:05:48.754Z,81.20
2018-03-15T17:08:16.643Z,82.00
2018-03-15T17:10:44.499Z,82.00
2018-03-15T17:13:12.556Z,82.20
2018-03-15T17:15:40.510Z,82.20
2018-03-15T17:18:08.834Z,82.20
2018-03-15T17:20:36.831Z,82.40
2018-03-15T17:23:05.037Z,82.30
2018-03-15T17:25:32.963Z,82.00
2018-03-15T17:28:01.036Z,82.10
2018-03-15T17:30:28.853Z,82.00
2018-03-15T17:32:56.849Z,81.80
2018-03-15T17:35:25.577Z,81.20
2018-03-15T17:37:53.415Z,81.20
2018-03-15T17:40:21.405Z,81.70
2018-03-15T17:42:49.405Z,81.80
2018-03-15T17:45:17.607Z,81.90
2018-03-15T17:47:45.560Z,82.00
2018-03-15T17:50:13.706Z,81.90
2018-03-15T17:52:41.879Z,82.20
2018-03-15T17:55:11.016Z,82.20
2018-03-15T17:57:38.904Z,82.40
2018-03-15T18:00:07.023Z,82.40
2018-03-15T18:02:35.079Z,82.50
2018-03-15T18:05:05.651Z,82.40
2018-03-15T18:07:33.639Z,82.30
2018-03-15T18:10:01.629Z,82.50
2018-03-15T18:12:29.711Z,82.40
2018-03-15T18:14:57.619Z,82.30
2018-03-15T18:17:26.133Z,82.40
2018-03-15T18:19:54.121Z,82.60
2018-03-15T18:22:23.095Z,82.60
2018-03-15T18:24:51.073Z,82.90
2018-03-15T18:27:19.046Z,82.70
2018-03-15T18:29:46.811Z,82.90
2018-03-15T18:32:14.739Z,82.80
2018-03-15T18:34:42.691Z,82.80
2018-03-15T18:37:10.575Z,82.90
2018-03-15T18:39:38.503Z,82.30
2018-03-15T18:42:07.135Z,82.40
2018-03-15T18:44:35.049Z,82.70
2018-03-15T18:47:03.111Z,82.70
2018-03-15T18:49:31.756Z,83.10
2018-03-15T18:52:00.157Z,83.00
2018-03-15T18:54:28.430Z,83.20
2018-03-15T18:56:56.474Z,83.60
2018-03-15T18:59:24.504Z,83.50
2018-03-15T19:01:52.492Z,83.70
2018-03-15T19:04:20.403Z,83.90
2018-03-15T19:06:48.359Z,84.00
2018-03-15T19:09:16.434Z,84.70
2018-03-15T19:11:45.407Z,84.10
2018-03-15T19:14:13.537Z,84.20
2018-03-15T19:16:42.418Z,85.00
2018-03-15T19:19:10.409Z,84.50
2018-03-15T19:21:39.014Z,84.50
2018-03-15T19:24:06.887Z,85.10
2018-03-15T19:26:34.665Z,84.70
2018-03-15T19:29:02.656Z,84.70
2018-03-15T19:31:30.565Z,84.70
2018-03-15T19:33:58.697Z,84.50
2018-03-15T19:36:26.656Z,84.30
2018-03-15T19:38:54.575Z,83.90
2018-03-15T19:41:23.865Z,83.80
2018-03-15T19:43:51.753Z,84.00
2018-03-15T19:46:19.688Z,84.30
2018-03-15T19:48:49.085Z,84.50
2018-03-15T19:51:16.971Z,84.50
2018-03-15T19:53:44.990Z,84.60
2018-03-15T19:56:12.918Z,84.00
2018-03-15T19:58:41.005Z,84.40
2018-03-15T20:01:11.709Z,84.80
2018-03-15T20:03:39.759Z,84.60
2018-03-15T20:06:07.665Z,84.70
2018-03-15T20:08:35.736Z,84.50
2018-03-15T20:11:05.201Z,85.30
2018-03-15T20:13:34.050Z,84.70
2018-03-15T20:16:06.319Z,85.10
2018-03-15T20:18:39.267Z,85.10
2018-03-15T20:21:10.265Z,85.70
2018-03-15T20:23:44.344Z,85.60
2018-03-15T20:26:12.882Z,85.10
2018-03-15T20:28:46.737Z,85.40
2018-03-15T20:31:16.867Z,85.20
2018-03-15T20:33:51.000Z,85.10
2018-03-15T20:36:18.862Z,85.00
2018-03-15T20:38:50.519Z,85.30
2018-03-15T20:41:23.933Z,85.30
2018-03-15T20:43:51.773Z,85.10
2018-03-15T20:46:25.384Z,85.00
2018-03-15T20:49:08.886Z,84.90
2018-03-15T20:51:37.669Z,84.80
2018-03-15T20:54:05.603Z,84.30
2018-03-15T20:56:33.520Z,84.00
2018-03-15T20:59:01.460Z,84.20
2018-03-15T21:01:29.132Z,84.10
2018-03-15T21:03:57.648Z,84.00
2018-03-15T21:06:25.405Z,84.30
2018-03-15T21:08:53.397Z,84.20
2018-03-15T21:11:21.354Z,84.30
2018-03-15T21:13:49.260Z,84.10
2018-03-15T21:16:17.489Z,84.30
2018-03-15T21:18:45.496Z,84.10
2018-03-15T21:21:13.498Z,84.30
2018-03-15T21:23:42.696Z,84.00
2018-03-15T21:26:10.958Z,84.00
2018-03-15T21:28:39.767Z,84.30
2018-03-15T21:31:07.960Z,84.30
2018-03-15T21:33:35.762Z,84.30
2018-03-15T21:36:03.635Z,84.30
2018-03-15T21:38:31.566Z,84.40
2018-03-15T21:40:59.434Z,83.80
2018-03-15T21:43:27.267Z,84.10
2018-03-15T21:45:54.951Z,84.00
2018-03-15T21:48:22.888Z,82.70
2018-03-15T21:50:50.505Z,81.50
2018-03-15T21:53:18.489Z,79.40
2018-03-15T21:55:46.863Z,79.00
2018-03-15T21:58:14.816Z,77.10
2018-03-15T22:00:42.727Z,76.70
2018-03-15T22:03:11.628Z,75.90
2018-03-15T22:05:40.163Z,75.10
2018-03-15T22:08:08.173Z,75.00
2018-03-15T22:10:36.069Z,75.20
2018-03-15T22:13:04.005Z,73.70
2018-03-15T22:15:31.649Z,73.80
2018-03-15T22:17:59.484Z,73.10
2018-03-15T22:20:27.533Z,72.80
2018-03-15T22:22:55.327Z,71.80
2018-03-15T22:25:23.026Z,72.50
2018-03-15T22:27:50.913Z,72.70
2018-03-15T22:30:19.493Z,72.50
2018-03-15T22:32:47.291Z,72.40
2018-03-15T22:35:15.205Z,71.20
2018-03-15T22:37:43.024Z,71.50
2018-03-15T22:40:10.867Z,72.60
2018-03-15T22:42:38.812Z,71.80
2018-03-15T22:45:06.729Z,72.00
2018-03-15T22:47:34.682Z,72.00
2018-03-15T22:50:02.817Z,71.70
2018-03-15T22:52:30.818Z,71.90
2018-03-15T22:54:58.739Z,71.80
2018-03-15T22:57:26.760Z,71.60
2018-03-15T22:59:54.740Z,71.40
2018-03-15T23:02:22.663Z,71.30
2018-03-15T23:04:51.287Z,71.70
2018-03-15T23:07:19.280Z,71.70
2018-03-15T23:09:47.112Z,72.00
2018-03-15T23:12:15.119Z,72.00
2018-03-15T23:14:43.852Z,72.30
2018-03-15T23:17:12.142Z,71.70
2018-03-15T23:19:40.746Z,71.50
2018-03-15T23:22:08.759Z,71.50
2018-03-15T23:24:36.740Z,71.70
2018-03-15T23:27:04.616Z,72.30
2018-03-15T23:29:32.560Z,72.60
2018-03-15T23:32:00.363Z,72.70
2018-03-15T23:34:28.160Z,73.10
2018-03-15T23:36:56.193Z,73.70
2018-03-15T23:39:24.376Z,73.80
2018-03-15T23:41:52.347Z,74.10
2018-03-15T23:44:20.087Z,74.50
2018-03-15T23:46:47.724Z,74.50
2018-03-15T23:49:15.437Z,74.60
2018-03-15T23:51:43.344Z,75.00
2018-03-15T23:54:11.220Z,75.40
2018-03-15T23:56:39.089Z,75.80
2018-03-15T23:59:06.922Z,76.20
